Time,TemperatureF,DewpointF,PressureIn,WindDirection,WindDirectionDegrees,WindSpeedMPH,WindSpeedGustMPH,Humidity,HourlyPrecipIn,Conditions,Clouds,dailyrainin,SoftwareType,DateUTC
2013-07-29 00:06:00,67.3,67.0,29.93,East,90,0.0,2.0,97,0.00,,,0.88,weatherlink.com 1.10,2013-07-29 04:06:00,
2013-07-29 00:21:00,66.9,66.0,29.93,East,91,0.0,1.0,97,0.00,,,0.88,weatherlink.com 1.10,2013-07-29 04:21:00,
2013-07-29 00:51:00,66.3,66.0,29.93,ESE,103,0.0,0.0,97,0.00,,,0.88,weatherlink.com 1.10,2013-07-29 04:51:00,
2013-07-29 01:06:00,66.2,65.0,29.94,ESE,103,0.0,1.0,97,0.00,,,0.88,weatherlink.com 1.10,2013-07-29 05:06:00,
2013-07-29 01:21:00,65.7,65.0,29.92,ESE,103,0.0,1.0,97,0.00,,,0.88,weatherlink.com 1.10,2013-07-29 05:21:00,
2013-07-29 01:36:00,65.6,65.0,29.94,SW,232,0.0,1.0,97,0.00,,,0.88,weatherlink.com 1.10,2013-07-29 05:36:00,
2013-07-29 01:51:00,65.8,65.0,29.95,SW,232,0.0,1.0,98,0.00,,,0.88,weatherlink.com 1.10,2013-07-29 05:51:00,
2013-07-29 02:06:00,66.1,66.0,29.97,WSW,248,0.0,3.0,98,0.00,,,0.88,weatherlink.com 1.10,2013-07-29 06:06:00,
2013-07-29 02:21:00,66.2,66.0,29.96,WSW,249,2.0,5.0,98,0.00,,,0.88,weatherlink.com 1.10,2013-07-29 06:21:00,
2013-07-29 02:36:00,65.6,65.0,29.95,WSW,253,0.0,4.0,98,0.00,,,0.88,weatherlink.com 1.10,2013-07-29 06:36:00,
2013-07-29 02:51:00,64.9,64.0,29.95,WNW,292,0.0,3.0,97,0.00,,,0.88,weatherlink.com 1.10,2013-07-29 06:51:00,
2013-07-29 03:06:00,64.3,64.0,29.94,SE,144,0.0,4.0,97,0.00,,,0.88,weatherlink.com 1.10,2013-07-29 07:06:00,
2013-07-29 03:21:00,64.1,63.0,29.94,SE,133,0.0,3.0,97,0.00,,,0.88,weatherlink.com 1.10,2013-07-29 07:21:00,
2013-07-29 03:36:00,63.9,63.0,29.94,West,281,0.0,2.0,97,0.00,,,0.88,weatherlink.com 1.10,2013-07-29 07:36:00,
2013-07-29 03:51:00,63.6,63.0,29.94,West,281,0.0,1.0,97,0.00,,,0.88,weatherlink.com 1.10,2013-07-29 07:51:00,
2013-07-29 04:06:00,63.3,63.0,29.94,West,281,0.0,0.0,97,0.00,,,0.88,weatherlink.com 1.10,2013-07-29 08:06:00,
2013-07-29 04:21:00,63.1,62.0,29.94,West,281,0.0,0.0,97,0.00,,,0.88,weatherlink.com 1.10,2013-07-29 08:21:00,
2013-07-29 04:36:00,62.7,62.0,29.94,West,281,0.0,0.0,97,0.00,,,0.88,weatherlink.com 1.10,2013-07-29 08:36:00,
2013-07-29 04:51:00,62.6,62.0,29.94,West,281,0.0,1.0,97,0.01,,,0.89,weatherlink.com 1.10,2013-07-29 08:51:00,
2013-07-29 05:06:00,62.4,62.0,29.95,West,281,0.0,1.0,97,0.01,,,0.89,weatherlink.com 1.10,2013-07-29 09:06:00,
2013-07-29 05:36:00,61.8,61.0,29.96,WSW,255,0.0,2.0,97,0.01,,,0.89,weatherlink.com 1.10,2013-07-29 09:36:00,
2013-07-29 05:51:00,61.7,61.0,29.96,NNW,342,2.0,3.0,97,0.00,,,0.89,weatherlink.com 1.10,2013-07-29 09:51:00,
2013-07-29 06:06:00,61.9,61.0,29.97,West,273,0.0,1.0,97,0.00,,,0.89,weatherlink.com 1.10,2013-07-29 10:06:00,
2013-07-29 06:21:00,61.9,61.0,29.97,NNE,13,0.0,0.0,98,0.00,,,0.89,weatherlink.com 1.10,2013-07-29 10:21:00,
2013-07-29 06:36:00,61.6,61.0,29.97,NNE,13,0.0,0.0,98,0.00,,,0.00,weatherlink.com 1.10,2013-07-29 10:36:00,
2013-07-29 06:52:00,61.5,61.0,29.97,NNE,13,0.0,1.0,98,0.00,,,0.00,weatherlink.com 1.10,2013-07-29 10:52:00,
2013-07-29 07:07:00,61.5,61.0,29.98,ENE,57,0.0,0.0,98,0.00,,,0.00,weatherlink.com 1.10,2013-07-29 11:07:00,
2013-07-29 07:37:00,62.5,62.0,29.98,NNW,338,0.0,1.0,98,0.00,,,0.00,weatherlink.com 1.10,2013-07-29 11:37:00,
2013-07-29 07:52:00,63.3,63.0,29.99,NNW,336,0.0,1.0,98,0.00,,,0.00,weatherlink.com 1.10,2013-07-29 11:52:00,
2013-07-29 08:07:00,64.3,64.0,30.00,West,260,0.0,0.0,99,0.00,,,0.00,weatherlink.com 1.10,2013-07-29 12:07:00,
2013-07-29 08:22:00,64.9,65.0,30.00,West,263,0.0,3.0,99,0.00,,,0.00,weatherlink.com 1.10,2013-07-29 12:22:00,
2013-07-29 08:37:00,65.8,65.0,30.00,NW,306,0.0,3.0,98,0.00,,,0.00,weatherlink.com 1.10,2013-07-29 12:37:00,
2013-07-29 08:52:00,66.9,66.0,30.00,WNW,303,2.0,5.0,97,0.00,,,0.00,weatherlink.com 1.10,2013-07-29 12:52:00,
2013-07-29 09:07:00,68.3,66.0,30.00,NW,321,0.0,5.0,92,0.00,,,0.00,weatherlink.com 1.10,2013-07-29 13:07:00,
2013-07-29 09:22:00,69.7,66.0,30.01,WSW,257,2.0,4.0,87,0.00,,,0.00,weatherlink.com 1.10,2013-07-29 13:22:00,
2013-07-29 09:37:00,70.9,66.0,30.01,NW,322,0.0,4.0,85,0.00,,,0.00,weatherlink.com 1.10,2013-07-29 13:37:00,
2013-07-29 09:52:00,72.0,66.0,30.01,WNW,288,0.0,3.0,81,0.00,,,0.00,weatherlink.com 1.10,2013-07-29 13:52:00,
2013-07-29 10:07:00,73.1,67.0,30.01,WSW,257,0.0,3.0,81,0.00,,,0.00,weatherlink.com 1.10,2013-07-29 14:07:00,
2013-07-29 10:37:00,74.2,66.0,30.02,NW,324,1.0,7.0,75,0.00,,,0.00,weatherlink.com 1.10,2013-07-29 14:37:00,
2013-07-29 10:52:00,74.1,65.0,30.02,WNW,290,2.0,3.0,73,0.00,,,0.00,weatherlink.com 1.10,2013-07-29 14:52:00,
2013-07-29 11:07:00,75.1,66.0,30.02,WNW,292,3.0,6.0,73,0.00,,,0.00,weatherlink.com 1.10,2013-07-29 15:07:00,
2013-07-29 11:22:00,76.6,67.0,30.01,WSW,242,5.0,5.0,72,0.00,,,0.00,weatherlink.com 1.10,2013-07-29 15:22:00,
2013-07-29 12:23:00,78.3,65.0,30.01,NW,310,0.0,4.0,64,0.00,,,0.00,weatherlink.com 1.10,2013-07-29 16:23:00,
2013-07-29 12:53:00,80.2,65.0,30.01,WSW,242,1.0,7.0,61,0.00,,,0.00,weatherlink.com 1.10,2013-07-29 16:53:00,
2013-07-29 13:08:00,80.2,64.0,30.00,West,259,2.0,9.0,59,0.00,,,0.00,weatherlink.com 1.10,2013-07-29 17:08:00,
2013-07-29 13:23:00,81.3,61.0,30.01,South,180,5.0,6.0,51,0.00,,,0.00,weatherlink.com 1.10,2013-07-29 17:23:00,
2013-07-29 13:38:00,80.9,63.0,30.00,SW,232,3.0,10.0,54,0.00,,,0.00,weatherlink.com 1.10,2013-07-29 17:38:00,
2013-07-29 14:23:00,83.1,60.0,30.00,South,191,0.0,7.0,45,0.00,,,0.00,weatherlink.com 1.10,2013-07-29 18:23:00,
2013-07-29 14:53:00,84.7,58.0,30.00,WSW,243,4.0,6.0,40,0.00,,,0.00,weatherlink.com 1.10,2013-07-29 18:53:00,
2013-07-29 15:23:00,84.5,59.0,30.00,SW,236,1.0,10.0,42,0.00,,,0.00,weatherlink.com 1.10,2013-07-29 19:23:00,
2013-07-29 15:38:00,84.3,61.0,30.00,SW,229,3.0,7.0,46,0.00,,,0.00,weatherlink.com 1.10,2013-07-29 19:38:00,
2013-07-29 15:53:00,83.3,58.0,30.00,WNW,293,0.0,7.0,42,0.00,,,0.00,weatherlink.com 1.10,2013-07-29 19:53:00,
2013-07-29 16:08:00,82.7,59.0,30.00,SSW,209,2.0,7.0,44,0.00,,,0.00,weatherlink.com 1.10,2013-07-29 20:08:00,
2013-07-29 16:23:00,82.3,60.0,30.00,WNW,282,3.0,9.0,47,0.00,,,0.00,weatherlink.com 1.10,2013-07-29 20:23:00,
2013-07-29 16:38:00,81.7,58.0,30.00,WSW,239,4.0,14.0,44,0.00,,,0.00,weatherlink.com 1.10,2013-07-29 20:38:00,
2013-07-29 16:53:00,82.1,59.0,30.00,SW,215,1.0,7.0,45,0.00,,,0.00,weatherlink.com 1.10,2013-07-29 20:53:00,
2013-07-29 17:08:00,81.2,57.0,30.00,West,270,1.0,9.0,44,0.00,,,0.00,weatherlink.com 1.10,2013-07-29 21:08:00,
2013-07-29 17:23:00,81.5,59.0,30.00,WSW,253,0.0,7.0,47,0.00,,,0.00,weatherlink.com 1.10,2013-07-29 21:23:00,
2013-07-29 17:38:00,80.8,57.0,30.00,WNW,288,1.0,9.0,45,0.00,,,0.00,weatherlink.com 1.10,2013-07-29 21:38:00,
2013-07-29 17:53:00,80.1,57.0,30.00,NNW,338,1.0,8.0,45,0.00,,,0.00,weatherlink.com 1.10,2013-07-29 21:53:00,
2013-07-29 18:08:00,79.3,58.0,30.00,WNW,296,4.0,7.0,48,0.00,,,0.00,weatherlink.com 1.10,2013-07-29 22:08:00,
2013-07-29 18:38:00,78.1,59.0,30.00,SW,215,4.0,9.0,52,0.00,,,0.00,weatherlink.com 1.10,2013-07-29 22:38:00,
2013-07-29 18:53:00,77.0,58.0,30.01,SW,236,1.0,6.0,52,0.00,,,0.00,weatherlink.com 1.10,2013-07-29 22:53:00,
2013-07-29 19:08:00,76.1,58.0,30.02,West,268,0.0,5.0,54,0.00,,,0.00,weatherlink.com 1.10,2013-07-29 23:08:00,
2013-07-29 19:23:00,75.1,58.0,30.02,West,271,1.0,7.0,55,0.00,,,0.00,weatherlink.com 1.10,2013-07-29 23:23:00,
2013-07-29 19:38:00,74.6,60.0,30.02,NW,310,0.0,3.0,61,0.00,,,0.00,weatherlink.com 1.10,2013-07-29 23:38:00,
2013-07-29 19:53:00,71.5,61.0,30.03,NW,321,1.0,2.0,69,0.00,,,0.00,weatherlink.com 1.10,2013-07-29 23:53:00,
2013-07-29 20:08:00,69.4,61.0,30.03,NW,325,0.0,0.0,74,0.00,,,0.00,weatherlink.com 1.10,2013-07-30 00:08:00,
2013-07-29 20:23:00,67.8,60.0,30.04,NW,325,0.0,0.0,75,0.00,,,0.00,weatherlink.com 1.10,2013-07-30 00:23:00,
2013-07-29 20:38:00,66.5,59.0,30.04,NW,325,0.0,0.0,78,0.00,,,0.00,weatherlink.com 1.10,2013-07-30 00:38:00,
2013-07-29 20:53:00,65.4,59.0,30.05,NW,325,0.0,0.0,81,0.00,,,0.00,weatherlink.com 1.10,2013-07-30 00:53:00,
2013-07-29 21:08:00,64.2,59.0,30.05,NW,325,0.0,0.0,82,0.00,,,0.00,weatherlink.com 1.10,2013-07-30 01:08:00,
2013-07-29 21:23:00,63.4,58.0,30.06,NW,325,0.0,0.0,83,0.00,,,0.00,weatherlink.com 1.10,2013-07-30 01:23:00,
2013-07-29 21:38:00,62.6,58.0,30.06,NW,325,0.0,1.0,84,0.00,,,0.00,weatherlink.com 1.10,2013-07-30 01:38:00,
2013-07-29 21:53:00,61.8,57.0,30.07,NW,325,0.0,1.0,84,0.00,,,0.00,weatherlink.com 1.10,2013-07-30 01:53:00,
2013-07-29 22:08:00,61.1,57.0,30.07,NNW,344,1.0,1.0,85,0.00,,,0.00,weatherlink.com 1.10,2013-07-30 02:08:00,
2013-07-29 22:23:00,60.6,56.0,30.07,North,5,0.0,1.0,85,0.00,,,0.00,weatherlink.com 1.10,2013-07-30 02:23:00,
2013-07-29 22:38:00,60.2,56.0,30.08,North,5,0.0,1.0,87,0.00,,,0.00,weatherlink.com 1.10,2013-07-30 02:38:00,
2013-07-29 22:53:00,59.8,56.0,30.08,North,5,0.0,0.0,88,0.00,,,0.00,weatherlink.com 1.10,2013-07-30 02:53:00,
2013-07-29 23:08:00,59.4,56.0,30.08,North,5,0.0,1.0,89,0.00,,,0.00,weatherlink.com 1.10,2013-07-30 03:08:00,
2013-07-29 23:24:00,58.9,56.0,30.09,North,5,0.0,1.0,90,0.00,,,0.00,weatherlink.com 1.10,2013-07-30 03:24:00,
2013-07-29 23:39:00,58.6,56.0,30.09,North,5,0.0,1.0,90,0.00,,,0.00,weatherlink.com 1.10,2013-07-30 03:39:00,
2013-07-29 23:54:00,58.4,56.0,30.09,North,5,0.0,1.0,91,0.00,,,0.00,weatherlink.com 1.10,2013-07-30 03:54:00,